createdAt,value
2022-12-31T00:01:43.693Z,6.74
2022-12-31T00:04:46.497Z,6.82
2022-12-31T00:07:49.272Z,6.93
2022-12-31T00:10:52.105Z,7.07
2022-12-31T00:13:55.652Z,7.22
2022-12-31T00:16:58.523Z,7.31
2022-12-31T00:20:01.410Z,7.38
2022-12-31T00:23:04.231Z,7.42
2022-12-31T00:26:16.958Z,7.46
2022-12-31T00:29:19.786Z,7.48
2022-12-31T00:32:22.637Z,7.46
2022-12-31T00:35:25.497Z,7.45
2022-12-31T00:38:28.286Z,7.44
2022-12-31T00:41:31.488Z,7.41
2022-12-31T00:44:34.249Z,7.41
2022-12-31T00:47:37.061Z,7.41
2022-12-31T00:50:39.830Z,7.44
2022-12-31T00:53:43.434Z,7.44
2022-12-31T00:56:46.359Z,7.46
2022-12-31T00:59:49.153Z,7.48
2022-12-31T01:02:52.070Z,7.50
2022-12-31T01:05:59.894Z,7.53
2022-12-31T01:09:02.744Z,7.55
2022-12-31T01:12:05.752Z,7.58
2022-12-31T01:15:08.743Z,7.62
2022-12-31T01:18:11.696Z,7.68
2022-12-31T01:21:15.763Z,7.71
2022-12-31T01:24:18.583Z,7.73
2022-12-31T01:27:21.398Z,7.73
2022-12-31T01:30:24.183Z,7.72
2022-12-31T01:33:26.993Z,7.72
2022-12-31T01:36:31.974Z,7.75
2022-12-31T01:39:34.750Z,7.72
2022-12-31T01:42:37.625Z,7.68
2022-12-31T01:45:42.224Z,7.65
2022-12-31T01:48:50.205Z,7.65
2022-12-31T01:52:24.328Z,7.64
2022-12-31T01:55:30.533Z,7.68
2022-12-31T01:58:44.303Z,7.70
2022-12-31T02:01:48.909Z,7.70
2022-12-31T02:04:56.123Z,7.71
2022-12-31T02:07:59.035Z,7.75
2022-12-31T02:11:02.059Z,7.77
2022-12-31T02:14:10.017Z,7.77
2022-12-31T02:17:25.025Z,7.77
2022-12-31T02:21:03.573Z,7.75
2022-12-31T02:24:06.376Z,7.75
2022-12-31T02:27:23.929Z,7.74
2022-12-31T02:30:31.357Z,7.73
2022-12-31T02:33:41.320Z,7.73
2022-12-31T02:36:47.567Z,7.71
2022-12-31T02:39:51.466Z,7.69
2022-12-31T02:42:55.701Z,7.67
2022-12-31T02:46:20.396Z,7.64
2022-12-31T02:49:53.800Z,7.59
2022-12-31T02:52:59.648Z,7.54
2022-12-31T02:56:14.491Z,7.52
2022-12-31T02:59:47.137Z,7.49
2022-12-31T03:02:52.239Z,7.46
2022-12-31T03:05:57.413Z,7.40
2022-12-31T03:09:14.835Z,7.34
2022-12-31T03:12:38.842Z,7.27
2022-12-31T03:15:41.643Z,7.21
2022-12-31T03:19:13.972Z,7.19
2022-12-31T03:22:29.153Z,7.21
2022-12-31T03:25:49.766Z,7.25
2022-12-31T03:28:52.535Z,7.27
2022-12-31T03:31:55.351Z,7.28
2022-12-31T03:34:58.113Z,7.30
2022-12-31T03:38:02.177Z,7.31
2022-12-31T03:41:05.702Z,7.33
2022-12-31T03:44:08.515Z,7.36
2022-12-31T03:47:11.387Z,7.39
2022-12-31T03:50:16.722Z,7.43
2022-12-31T03:53:20.298Z,7.50
2022-12-31T03:56:23.072Z,7.56
2022-12-31T03:59:26.020Z,7.62
2022-12-31T04:02:29.617Z,7.70
2022-12-31T04:05:33.858Z,7.76
2022-12-31T04:08:36.623Z,7.80
2022-12-31T04:11:39.495Z,7.82
2022-12-31T04:14:42.724Z,7.85
2022-12-31T04:17:45.761Z,7.84
2022-12-31T04:20:48.700Z,7.86
2022-12-31T04:23:51.546Z,7.87
2022-12-31T04:26:54.356Z,7.86
2022-12-31T04:29:57.113Z,7.85
2022-12-31T04:32:59.990Z,7.84
2022-12-31T04:36:07.886Z,7.84
2022-12-31T04:39:10.666Z,7.84
2022-12-31T04:42:13.507Z,7.84
2022-12-31T04:45:16.449Z,7.87
2022-12-31T04:48:19.283Z,7.91
2022-12-31T04:51:22.861Z,7.96
2022-12-31T04:54:25.679Z,7.97
2022-12-31T04:57:28.460Z,7.97
2022-12-31T05:00:31.231Z,8.01
2022-12-31T05:03:35.355Z,8.02
2022-12-31T05:06:38.135Z,8.01
2022-12-31T05:09:40.940Z,8.03
2022-12-31T05:12:43.742Z,8.02
2022-12-31T05:15:46.983Z,8.01
2022-12-31T05:18:49.794Z,7.99
2022-12-31T05:22:11.340Z,7.98
2022-12-31T05:25:14.309Z,7.97
2022-12-31T05:28:17.559Z,7.99
2022-12-31T05:31:20.418Z,7.98
2022-12-31T05:34:23.230Z,7.99
2022-12-31T05:37:27.851Z,7.99
2022-12-31T05:40:30.800Z,8.01
2022-12-31T05:43:34.325Z,8.02
2022-12-31T05:46:37.103Z,8.06
2022-12-31T05:49:40.006Z,8.08
2022-12-31T05:52:47.423Z,8.08
2022-12-31T05:55:50.855Z,8.09
2022-12-31T05:58:53.830Z,8.11
2022-12-31T06:01:57.152Z,8.14
2022-12-31T06:04:59.967Z,8.19
2022-12-31T06:08:02.970Z,8.25
2022-12-31T06:11:05.816Z,8.29
2022-12-31T06:14:08.759Z,8.32
2022-12-31T06:17:11.701Z,8.32
2022-12-31T06:20:14.525Z,8.33
2022-12-31T06:23:17.376Z,8.30
2022-12-31T06:26:20.275Z,8.27
2022-12-31T06:29:23.102Z,8.25
2022-12-31T06:32:25.866Z,8.24
2022-12-31T06:35:28.847Z,8.18
2022-12-31T06:38:34.128Z,8.10
2022-12-31T06:41:37.428Z,8.04
2022-12-31T06:44:40.404Z,7.97
2022-12-31T06:47:43.316Z,7.92
2022-12-31T06:50:46.139Z,7.90
2022-12-31T06:53:50.876Z,7.85
2022-12-31T06:56:54.100Z,7.84
2022-12-31T06:59:57.466Z,7.89
2022-12-31T07:03:09.651Z,7.95
2022-12-31T07:06:23.518Z,7.96
2022-12-31T07:09:42.941Z,7.98
2022-12-31T07:13:17.624Z,7.95
2022-12-31T07:16:35.685Z,7.91
2022-12-31T07:19:57.896Z,7.91
2022-12-31T07:23:01.289Z,7.94
2022-12-31T07:26:11.074Z,8.00
2022-12-31T07:29:23.675Z,8.11
2022-12-31T07:32:36.106Z,8.23
2022-12-31T07:35:47.996Z,8.38
2022-12-31T07:38:57.273Z,8.49
2022-12-31T07:42:43.769Z,8.52
2022-12-31T07:45:49.972Z,8.52
2022-12-31T07:48:52.840Z,8.52
2022-12-31T07:51:56.127Z,8.53
2022-12-31T07:54:58.884Z,8.56
2022-12-31T07:58:19.284Z,8.61
2022-12-31T08:01:47.896Z,8.68
2022-12-31T08:05:11.051Z,8.79
2022-12-31T08:08:39.820Z,8.93
2022-12-31T08:11:55.597Z,9.17
2022-12-31T08:14:58.697Z,9.43
2022-12-31T08:18:01.799Z,9.63
2022-12-31T08:21:17.557Z,9.82
2022-12-31T08:24:40.515Z,9.97
2022-12-31T08:28:02.277Z,10.06
2022-12-31T08:31:31.516Z,10.09
2022-12-31T08:34:52.863Z,10.13
2022-12-31T08:38:13.717Z,10.22
2022-12-31T08:41:27.098Z,10.22
2022-12-31T08:44:39.716Z,10.18
2022-12-31T08:48:04.701Z,10.16
2022-12-31T08:51:14.766Z,10.10
2022-12-31T08:54:17.793Z,10.09
2022-12-31T08:57:26.326Z,10.08
2022-12-31T09:00:30.675Z,10.12
2022-12-31T09:03:55.679Z,10.14
2022-12-31T09:07:03.052Z,10.12
2022-12-31T09:10:24.930Z,10.10
2022-12-31T09:13:49.491Z,10.13
2022-12-31T09:17:08.591Z,10.18
2022-12-31T09:20:17.180Z,10.23
2022-12-31T09:23:20.643Z,10.29
2022-12-31T09:27:06.194Z,10.35
2022-12-31T09:30:13.245Z,10.36
2022-12-31T09:33:57.700Z,10.41
2022-12-31T09:37:07.318Z,10.48
2022-12-31T09:40:28.421Z,10.55
2022-12-31T09:44:05.411Z,10.59
2022-12-31T09:47:34.574Z,10.60
2022-12-31T09:51:10.205Z,10.67
2022-12-31T09:54:20.501Z,10.82
2022-12-31T09:58:05.809Z,10.97
2022-12-31T10:01:11.830Z,10.98
2022-12-31T10:04:33.597Z,11.08
2022-12-31T10:08:25.903Z,11.28
2022-12-31T10:12:03.271Z,11.33
2022-12-31T10:15:29.043Z,11.32
2022-12-31T10:19:07.729Z,11.41
2022-12-31T10:22:41.809Z,11.50
2022-12-31T10:26:05.219Z,11.65
2022-12-31T10:29:26.404Z,11.71
2022-12-31T10:32:51.305Z,11.81
2022-12-31T10:36:05.273Z,11.97
2022-12-31T10:39:22.184Z,12.08
2022-12-31T10:42:50.222Z,12.22
2022-12-31T10:46:30.135Z,12.27
2022-12-31T10:49:51.034Z,12.25
2022-12-31T10:53:13.069Z,12.18
2022-12-31T10:56:27.965Z,12.11
2022-12-31T11:00:22.670Z,12.03
2022-12-31T11:03:57.903Z,11.91
2022-12-31T11:07:16.018Z,11.92
2022-12-31T11:10:44.250Z,11.95
2022-12-31T11:13:47.002Z,12.02
2022-12-31T11:17:04.522Z,12.11
2022-12-31T11:20:39.548Z,12.26
2022-12-31T11:24:06.094Z,12.30
2022-12-31T11:27:14.898Z,12.30
2022-12-31T11:30:31.255Z,12.28
2022-12-31T11:33:58.487Z,12.30
2022-12-31T11:37:26.401Z,12.36
2022-12-31T11:40:54.717Z,12.35
2022-12-31T11:44:35.215Z,12.19
2022-12-31T11:48:04.227Z,12.02
2022-12-31T11:51:09.867Z,11.93
2022-12-31T11:54:21.720Z,11.85
2022-12-31T11:57:37.398Z,11.82
2022-12-31T12:00:47.526Z,11.83
2022-12-31T12:03:50.472Z,11.84
2022-12-31T12:06:53.538Z,11.91
2022-12-31T12:09:58.394Z,11.98
2022-12-31T12:13:01.202Z,12.04
2022-12-31T12:16:07.593Z,12.08
2022-12-31T12:19:18.021Z,12.11
2022-12-31T12:22:25.893Z,12.06
2022-12-31T12:25:40.874Z,11.98
2022-12-31T12:28:46.302Z,11.89
2022-12-31T12:32:17.065Z,11.86
2022-12-31T12:35:27.181Z,11.81
2022-12-31T12:38:29.970Z,11.81
2022-12-31T12:41:32.899Z,11.82
2022-12-31T12:44:36.095Z,11.86
2022-12-31T12:47:43.284Z,11.85
2022-12-31T12:50:48.740Z,11.86
2022-12-31T12:53:58.707Z,11.82
2022-12-31T12:57:07.639Z,11.75
2022-12-31T13:00:16.668Z,11.69
2022-12-31T13:07:46.926Z,11.70
2022-12-31T13:11:19.086Z,11.74
2022-12-31T13:14:42.628Z,11.82
2022-12-31T13:18:01.848Z,11.87
2022-12-31T13:21:23.857Z,11.88
2022-12-31T13:24:45.639Z,11.91
2022-12-31T13:27:52.127Z,11.95
2022-12-31T13:31:07.274Z,11.95
2022-12-31T13:34:23.328Z,11.91
2022-12-31T13:37:33.981Z,11.92
2022-12-31T13:41:00.140Z,11.95
2022-12-31T13:44:08.640Z,11.99
2022-12-31T13:47:20.460Z,12.05
2022-12-31T13:50:41.857Z,12.09
2022-12-31T13:53:57.781Z,12.07
2022-12-31T13:57:05.893Z,12.08
2022-12-31T14:00:17.918Z,12.06
2022-12-31T14:03:40.431Z,12.02
2022-12-31T14:06:51.480Z,11.98
2022-12-31T14:09:54.717Z,11.97
2022-12-31T14:13:34.172Z,11.98
2022-12-31T14:16:55.214Z,11.95
2022-12-31T14:20:14.360Z,11.92
2022-12-31T14:23:34.606Z,11.93
2022-12-31T14:26:42.586Z,11.89
2022-12-31T14:29:52.111Z,11.86
2022-12-31T14:33:12.122Z,11.83
2022-12-31T14:36:24.032Z,11.84
2022-12-31T14:39:37.811Z,11.86
2022-12-31T14:42:49.653Z,11.85
2022-12-31T14:46:18.880Z,11.81
2022-12-31T14:49:46.680Z,11.78
2022-12-31T14:53:07.995Z,11.75
2022-12-31T14:56:41.551Z,11.75
2022-12-31T14:59:58.453Z,11.75
2022-12-31T15:03:25.117Z,11.74
2022-12-31T15:06:47.377Z,11.69
2022-12-31T15:10:14.978Z,11.70
2022-12-31T15:13:49.290Z,11.75
2022-12-31T15:17:09.766Z,11.79
2022-12-31T15:20:37.907Z,11.81
2022-12-31T15:23:46.281Z,11.83
2022-12-31T15:27:01.953Z,11.94
2022-12-31T15:30:07.195Z,12.06
2022-12-31T15:33:17.610Z,12.07
2022-12-31T15:36:24.243Z,12.02
2022-12-31T15:39:39.583Z,12.02
2022-12-31T15:42:50.327Z,12.06
2022-12-31T15:45:55.566Z,12.04
2022-12-31T15:49:11.758Z,12.04
2022-12-31T15:52:29.469Z,12.06
2022-12-31T15:55:48.628Z,12.02
2022-12-31T15:58:56.923Z,11.93
2022-12-31T16:01:59.938Z,11.91
2022-12-31T16:05:02.900Z,11.91
2022-12-31T16:08:06.283Z,11.90
2022-12-31T16:11:10.261Z,11.90
2022-12-31T16:14:22.282Z,11.93
2022-12-31T16:17:33.559Z,11.94
2022-12-31T16:20:43.215Z,11.91
2022-12-31T16:23:51.249Z,11.87
2022-12-31T16:26:57.259Z,11.82
2022-12-31T16:30:07.601Z,11.74
2022-12-31T16:33:14.526Z,11.68
2022-12-31T16:36:23.013Z,11.63
2022-12-31T16:39:31.055Z,11.56
2022-12-31T16:42:42.435Z,11.50
2022-12-31T16:45:47.248Z,11.42
2022-12-31T16:48:55.241Z,11.35
2022-12-31T16:52:04.843Z,11.28
2022-12-31T16:55:10.474Z,11.20
2022-12-31T16:58:34.709Z,11.17
2022-12-31T17:01:38.548Z,11.24
2022-12-31T17:04:48.037Z,11.33
2022-12-31T17:07:54.954Z,11.39
2022-12-31T17:10:57.829Z,11.39
2022-12-31T17:14:13.953Z,11.36
2022-12-31T17:17:26.367Z,11.35
2022-12-31T17:20:31.749Z,11.36
2022-12-31T17:23:37.008Z,11.40
2022-12-31T17:26:39.942Z,11.43
2022-12-31T17:29:44.283Z,11.40
2022-12-31T17:32:50.110Z,11.39
2022-12-31T17:36:23.757Z,11.37
2022-12-31T17:39:38.813Z,11.36
2022-12-31T17:42:41.744Z,11.35
2022-12-31T17:45:46.477Z,11.32
2022-12-31T17:49:00.982Z,11.25
2022-12-31T17:52:03.959Z,11.14
2022-12-31T17:55:06.964Z,11.06
2022-12-31T17:58:29.664Z,10.98
2022-12-31T18:01:33.238Z,10.86
2022-12-31T18:04:36.061Z,10.73
2022-12-31T18:07:38.852Z,10.65
2022-12-31T18:10:44.410Z,10.59
2022-12-31T18:13:47.357Z,10.57
2022-12-31T18:16:50.314Z,10.59
2022-12-31T18:20:08.641Z,10.61
2022-12-31T18:23:20.771Z,10.64
2022-12-31T18:26:24.498Z,10.68
2022-12-31T18:29:27.312Z,10.66
2022-12-31T18:32:34.186Z,10.58
2022-12-31T18:38:59.962Z,10.41
2022-12-31T18:42:02.801Z,10.39
2022-12-31T18:45:15.317Z,10.57
2022-12-31T18:48:19.075Z,10.70
2022-12-31T18:51:31.382Z,10.75
2022-12-31T18:54:35.079Z,10.80
2022-12-31T18:57:37.866Z,10.79
2022-12-31T19:00:41.195Z,10.71
2022-12-31T19:03:44.038Z,10.59
2022-12-31T19:06:47.864Z,10.49
2022-12-31T19:09:56.368Z,10.42
2022-12-31T19:13:01.185Z,10.40
2022-12-31T19:16:04.135Z,10.55
2022-12-31T19:19:08.719Z,10.74
2022-12-31T19:22:15.307Z,10.90
2022-12-31T19:25:19.658Z,11.04
2022-12-31T19:28:25.242Z,11.17
2022-12-31T19:31:28.120Z,11.26
2022-12-31T19:34:30.964Z,11.33
2022-12-31T19:37:33.795Z,11.36
2022-12-31T19:40:36.624Z,11.41
2022-12-31T19:43:39.494Z,11.41
2022-12-31T19:46:42.369Z,11.38
2022-12-31T19:49:45.326Z,11.38
2022-12-31T19:52:50.058Z,11.41
2022-12-31T19:55:53.596Z,11.43
2022-12-31T19:58:56.383Z,11.29
2022-12-31T20:01:59.327Z,11.06
2022-12-31T20:05:02.415Z,10.83
2022-12-31T20:08:05.390Z,10.61
2022-12-31T20:11:17.483Z,10.55
2022-12-31T20:14:20.341Z,10.70
2022-12-31T20:17:23.266Z,10.71
2022-12-31T20:20:29.480Z,10.52
2022-12-31T20:23:35.395Z,10.32
2022-12-31T20:26:38.392Z,10.14
2022-12-31T20:29:41.211Z,10.05
2022-12-31T20:32:44.155Z,9.99
2022-12-31T20:35:47.230Z,9.94
2022-12-31T20:38:50.439Z,9.91
2022-12-31T20:45:40.516Z,9.86
2022-12-31T20:48:45.039Z,9.83
2022-12-31T20:51:52.091Z,9.81
2022-12-31T20:54:55.281Z,9.81
2022-12-31T20:57:58.319Z,9.82
2022-12-31T21:01:01.694Z,9.85
2022-12-31T21:04:06.673Z,9.91
2022-12-31T21:07:09.783Z,9.94
2022-12-31T21:10:12.721Z,9.95
2022-12-31T21:13:15.757Z,9.93
2022-12-31T21:16:18.855Z,9.92
2022-12-31T21:19:21.694Z,9.86
2022-12-31T21:22:24.813Z,9.82
2022-12-31T21:25:27.671Z,9.77
2022-12-31T21:28:30.507Z,9.72
2022-12-31T21:31:33.480Z,9.64
2022-12-31T21:34:36.447Z,9.57
2022-12-31T21:37:59.126Z,9.57
2022-12-31T21:41:03.796Z,9.59
2022-12-31T21:44:06.762Z,9.64
2022-12-31T21:47:38.652Z,9.69
2022-12-31T21:50:46.042Z,9.70
2022-12-31T21:53:49.105Z,9.68
2022-12-31T21:56:51.907Z,9.67
2022-12-31T22:00:41.266Z,9.69
2022-12-31T22:03:36.620Z,9.69
2022-12-31T22:06:39.453Z,9.70
2022-12-31T22:09:42.271Z,9.68
2022-12-31T22:12:45.539Z,9.67
2022-12-31T22:15:52.142Z,9.69
2022-12-31T22:18:56.088Z,9.73
2022-12-31T22:21:58.934Z,9.77
2022-12-31T22:25:01.859Z,9.82
2022-12-31T22:28:37.508Z,9.85
2022-12-31T22:31:30.537Z,9.86
2022-12-31T22:34:33.499Z,9.86
2022-12-31T22:37:56.334Z,9.85
2022-12-31T22:41:08.094Z,9.83
2022-12-31T22:44:11.088Z,9.83
2022-12-31T22:47:13.886Z,9.81
2022-12-31T22:50:16.743Z,9.79
2022-12-31T22:53:19.935Z,9.80
2022-12-31T22:56:22.718Z,9.86
2022-12-31T22:59:25.620Z,10.12
2022-12-31T23:02:28.734Z,10.45
2022-12-31T23:05:34.124Z,10.76
2022-12-31T23:08:37.010Z,11.04
2022-12-31T23:11:41.111Z,11.28
2022-12-31T23:15:02.326Z,11.41
2022-12-31T23:18:23.967Z,11.50
2022-12-31T23:21:45.626Z,11.56
2022-12-31T23:24:48.470Z,11.60
2022-12-31T23:27:51.301Z,11.67
2022-12-31T23:30:54.329Z,11.71
2022-12-31T23:33:57.273Z,11.74
2022-12-31T23:37:00.167Z,11.76
2022-12-31T23:40:06.568Z,11.77
2022-12-31T23:43:21.878Z,11.77
2022-12-31T23:46:24.753Z,11.80
2022-12-31T23:49:27.702Z,11.85
2022-12-31T23:52:30.628Z,11.90
2022-12-31T23:55:33.519Z,11.90
2022-12-31T23:58:36.354Z,11.95
